createdAt,value
2022-12-20T00:01:55.713Z,100564.69
2022-12-20T00:04:25.663Z,100567.41
2022-12-20T00:06:54.058Z,100564.69
2022-12-20T00:09:22.461Z,100560.31
2022-12-20T00:11:50.818Z,100560.31
2022-12-20T00:14:19.690Z,100562.38
2022-12-20T00:16:48.168Z,100560.69
2022-12-20T00:19:16.583Z,100550.88
2022-12-20T00:21:46.369Z,100546.44
2022-12-20T00:24:18.135Z,100553.59
2022-12-20T00:26:49.168Z,100559.00
2022-12-20T00:29:17.550Z,100557.13
2022-12-20T00:31:46.055Z,100552.72
2022-12-20T00:34:14.534Z,100554.59
2022-12-20T00:36:42.878Z,100556.47
2022-12-20T00:39:12.685Z,100557.31
2022-12-20T00:41:41.037Z,100554.59
2022-12-20T00:44:09.404Z,100563.78
2022-12-20T00:46:37.908Z,100546.44
2022-12-20T00:49:07.476Z,100561.91
2022-12-20T00:51:35.828Z,100556.66
2022-12-20T00:54:04.281Z,100556.66
2022-12-20T00:56:34.087Z,100558.53
2022-12-20T00:59:02.571Z,100566.50
2022-12-20T01:01:34.492Z,100573.63
2022-12-20T01:04:03.462Z,100566.31
2022-12-20T01:06:33.511Z,100573.63
2022-12-20T01:09:02.177Z,100574.47
2022-12-20T01:11:34.655Z,100572.41
2022-12-20T01:14:06.696Z,100574.91
2022-12-20T01:16:38.656Z,100579.53
2022-12-20T01:19:08.647Z,100571.38
2022-12-20T01:21:38.251Z,100556.94
2022-12-20T01:24:07.013Z,100548.78
2022-12-20T01:26:36.859Z,100550.47
2022-12-20T01:29:05.306Z,100544.00
2022-12-20T01:31:34.063Z,100539.22
2022-12-20T01:34:03.153Z,100527.13
2022-12-20T01:36:35.032Z,100545.09
2022-12-20T01:39:08.510Z,100541.56
2022-12-20T01:41:40.355Z,100541.72
2022-12-20T01:44:53.256Z,100528.56
2022-12-20T01:47:22.164Z,100525.63
2022-12-20T01:49:56.033Z,100518.34
2022-12-20T01:52:32.175Z,100538.00
2022-12-20T01:55:08.630Z,100545.28
2022-12-20T01:57:46.471Z,100541.72
2022-12-20T02:00:17.044Z,100529.84
2022-12-20T02:02:50.095Z,100525.06
2022-12-20T02:05:22.884Z,100534.91
2022-12-20T02:07:55.665Z,100538.63
2022-12-20T02:10:35.127Z,100538.84
2022-12-20T02:13:13.667Z,100532.75
2022-12-20T02:15:50.989Z,100525.44
2022-12-20T02:18:25.229Z,100521.91
2022-12-20T02:21:23.386Z,100512.91
2022-12-20T02:24:34.360Z,100514.75
2022-12-20T02:27:37.564Z,100503.69
2022-12-20T02:30:15.440Z,100501.81
2022-12-20T02:32:52.333Z,100497.03
2022-12-20T02:35:25.918Z,100500.41
2022-12-20T02:37:57.011Z,100502.09
2022-12-20T02:40:32.587Z,100498.53
2022-12-20T02:43:26.720Z,100501.25
2022-12-20T02:45:57.518Z,100507.53
2022-12-20T02:48:29.548Z,100494.16
2022-12-20T02:51:01.454Z,100489.34
2022-12-20T02:53:30.253Z,100491.03
2022-12-20T02:56:03.621Z,100491.03
2022-12-20T02:58:39.430Z,100490.84
2022-12-20T03:01:17.742Z,100498.16
2022-12-20T03:03:46.692Z,100499.00
2022-12-20T03:06:15.263Z,100496.72
2022-12-20T03:08:43.830Z,100496.50
2022-12-20T03:11:12.210Z,100499.22
2022-12-20T03:13:40.573Z,100500.09
2022-12-20T03:16:11.819Z,100501.78
2022-12-20T03:18:40.455Z,100501.78
2022-12-20T03:21:09.191Z,100494.66
2022-12-20T03:23:37.505Z,100489.84
2022-12-20T03:26:06.417Z,100484.41
2022-12-20T03:28:34.768Z,100482.56
2022-12-20T03:31:03.843Z,100482.56
2022-12-20T03:33:33.559Z,100470.84
2022-12-20T03:36:01.919Z,100477.97
2022-12-20T03:38:30.284Z,100475.88
2022-12-20T03:40:58.650Z,100466.03
2022-12-20T03:43:27.104Z,100465.88
2022-12-20T03:45:55.463Z,100473.16
2022-12-20T03:48:23.856Z,100477.38
2022-12-20T03:50:53.596Z,100470.06
2022-12-20T03:53:22.007Z,100479.03
2022-12-20T03:55:50.365Z,100476.31
2022-12-20T03:58:18.750Z,100478.22
2022-12-20T04:00:47.624Z,100479.25
2022-12-20T04:03:16.376Z,100476.53
2022-12-20T04:05:44.925Z,100474.66
2022-12-20T04:08:14.668Z,100478.41
2022-12-20T04:10:56.943Z,100483.66
2022-12-20T04:13:25.339Z,100487.19
2022-12-20T04:15:59.824Z,100489.09
2022-12-20T04:18:28.965Z,100498.91
2022-12-20T04:20:57.333Z,100497.03
2022-12-20T04:23:27.179Z,100487.88
2022-12-20T04:25:55.579Z,100483.44
2022-12-20T04:28:23.990Z,100488.03
2022-12-20T04:30:52.473Z,100493.31
2022-12-20T04:33:20.997Z,100493.09
2022-12-20T04:35:49.545Z,100484.75
2022-12-20T04:38:19.023Z,100491.22
2022-12-20T04:40:50.837Z,100484.94
2022-12-20T04:43:19.759Z,100463.19
2022-12-20T04:45:52.463Z,100466.78
2022-12-20T04:48:55.179Z,100474.72
2022-12-20T04:51:10.361Z,100467.41
2022-12-20T04:53:49.940Z,100464.69
2022-12-20T04:56:22.434Z,100469.47
2022-12-20T04:58:53.694Z,100472.19
2022-12-20T05:01:22.773Z,100478.50
2022-12-20T05:03:51.688Z,100472.00
2022-12-20T05:06:20.402Z,100469.28
2022-12-20T05:08:49.265Z,100460.47
2022-12-20T05:11:19.169Z,100455.25
2022-12-20T05:13:47.653Z,100462.34
2022-12-20T05:16:16.629Z,100465.91
2022-12-20T05:18:49.191Z,100458.41
2022-12-20T05:21:35.657Z,100440.44
2022-12-20T05:24:32.692Z,100442.31
2022-12-20T05:27:02.732Z,100455.91
2022-12-20T05:29:31.211Z,100460.47
2022-12-20T05:31:59.647Z,100452.13
2022-12-20T05:34:28.032Z,100451.09
2022-12-20T05:36:56.422Z,100442.72
2022-12-20T05:39:24.779Z,100446.31
2022-12-20T05:41:53.773Z,100453.59
2022-12-20T05:44:23.519Z,100448.16
2022-12-20T05:46:54.468Z,100448.16
2022-12-20T05:49:22.914Z,100447.16
2022-12-20T05:51:51.297Z,100451.75
2022-12-20T05:54:19.632Z,100441.72
2022-12-20T05:56:48.018Z,100457.19
2022-12-20T05:59:17.864Z,100457.19
2022-12-20T06:01:47.755Z,100462.59
2022-12-20T06:04:16.280Z,100455.31
2022-12-20T06:06:44.715Z,100446.31
2022-12-20T06:09:13.172Z,100432.50
2022-12-20T06:11:41.828Z,100435.22
2022-12-20T06:14:10.284Z,100446.09
2022-12-20T06:16:38.851Z,100445.06
2022-12-20T06:19:09.143Z,100442.34
2022-12-20T06:21:37.534Z,100444.88
2022-12-20T06:24:06.709Z,100450.13
2022-12-20T06:26:36.722Z,100440.06
2022-12-20T06:29:07.229Z,100446.34
2022-12-20T06:31:35.807Z,100438.41
2022-12-20T06:34:04.134Z,100440.28
2022-12-20T06:36:34.016Z,100436.72
2022-12-20T06:39:09.202Z,100447.78
2022-12-20T06:41:38.254Z,100445.06
2022-12-20T06:44:06.916Z,100438.78
2022-12-20T06:46:35.552Z,100425.84
2022-12-20T06:49:03.985Z,100431.91
2022-12-20T06:51:33.775Z,100426.31
2022-12-20T06:54:02.231Z,100424.84
2022-12-20T06:56:33.552Z,100435.53
2022-12-20T06:59:04.512Z,100433.66
2022-12-20T07:01:33.404Z,100429.06
2022-12-20T07:04:01.843Z,100429.91
2022-12-20T07:06:30.300Z,100426.13
2022-12-20T07:09:00.143Z,100440.78
2022-12-20T07:11:28.603Z,100429.91
2022-12-20T07:13:57.679Z,100434.50
2022-12-20T07:16:26.412Z,100447.25
2022-12-20T07:18:55.607Z,100453.31
2022-12-20T07:21:24.054Z,100455.06
2022-12-20T07:23:55.842Z,100473.03
2022-12-20T07:26:25.714Z,100472.34
2022-12-20T07:28:54.553Z,100452.69
2022-12-20T07:31:23.053Z,100451.84
2022-12-20T07:33:51.492Z,100452.69
2022-12-20T07:36:19.870Z,100443.25
2022-12-20T07:38:49.131Z,100426.09
2022-12-20T07:41:19.072Z,100412.28
2022-12-20T07:43:49.075Z,100408.34
2022-12-20T07:46:17.927Z,100412.09
2022-12-20T07:48:46.574Z,100427.56
2022-12-20T07:51:20.054Z,100422.13
2022-12-20T07:53:54.123Z,100419.22
2022-12-20T07:56:23.585Z,100411.06
2022-12-20T07:58:58.616Z,100420.06
2022-12-20T08:01:28.401Z,100438.06
2022-12-20T08:04:03.665Z,100451.28
2022-12-20T08:06:32.544Z,100441.03
2022-12-20T08:09:04.228Z,100443.59
2022-12-20T08:11:36.308Z,100429.53
2022-12-20T08:14:08.331Z,100443.38
2022-12-20T08:16:37.254Z,100435.84
2022-12-20T08:19:05.819Z,100440.91
2022-12-20T08:21:34.248Z,100445.13
2022-12-20T08:24:02.628Z,100434.03
2022-12-20T08:26:31.038Z,100430.91
2022-12-20T08:28:59.580Z,100420.88
2022-12-20T08:31:29.428Z,100417.31
2022-12-20T08:33:57.917Z,100416.94
2022-12-20T08:36:26.312Z,100424.03
2022-12-20T08:38:54.835Z,100420.28
2022-12-20T08:41:23.273Z,100404.78
2022-12-20T08:43:51.739Z,100406.47
2022-12-20T08:46:20.261Z,100417.16
2022-12-20T08:48:50.164Z,100427.00
2022-12-20T08:51:18.609Z,100416.97
2022-12-20T08:53:47.077Z,100401.88
2022-12-20T08:56:17.557Z,100408.56
2022-12-20T08:58:47.350Z,100395.97
2022-12-20T09:01:18.077Z,100399.56
2022-12-20T09:03:47.312Z,100400.19
2022-12-20T09:06:19.859Z,100406.09
2022-12-20T09:08:49.250Z,100398.16
2022-12-20T09:11:20.108Z,100396.72
2022-12-20T09:13:51.466Z,100410.97
2022-12-20T09:16:22.552Z,100416.19
2022-12-20T09:18:52.017Z,100412.44
2022-12-20T09:21:22.901Z,100409.50
2022-12-20T09:23:53.235Z,100395.06
2022-12-20T09:26:23.938Z,100384.00
2022-12-20T09:28:53.987Z,100387.56
2022-12-20T09:31:25.321Z,100382.31
2022-12-20T09:33:55.792Z,100384.16
2022-12-20T09:36:28.704Z,100383.34
2022-12-20T09:38:57.994Z,100376.00
2022-12-20T09:41:38.342Z,100364.94
2022-12-20T09:44:15.351Z,100388.97
2022-12-20T09:46:45.468Z,100374.75
2022-12-20T09:49:20.214Z,100371.19
2022-12-20T09:52:14.195Z,100368.44
2022-12-20T09:54:54.301Z,100369.94
2022-12-20T09:57:32.507Z,100362.22
2022-12-20T10:00:00.980Z,100369.16
2022-12-20T10:05:41.712Z,100363.28
2022-12-20T10:08:25.307Z,100362.03
2022-12-20T10:10:58.176Z,100363.50
2022-12-20T10:13:48.711Z,100368.97
2022-12-20T10:16:36.915Z,100362.66
2022-12-20T10:19:27.726Z,100362.66
2022-12-20T10:22:10.237Z,100359.31
2022-12-20T10:24:42.391Z,100341.31
2022-12-20T10:27:17.094Z,100343.00
2022-12-20T10:29:46.544Z,100338.38
2022-12-20T10:32:18.764Z,100336.50
2022-12-20T10:34:57.054Z,100321.84
2022-12-20T10:37:25.555Z,100324.16
2022-12-20T10:39:55.932Z,100314.75
2022-12-20T10:42:31.932Z,100314.56
2022-12-20T10:45:00.574Z,100304.09
2022-12-20T10:47:41.978Z,100313.75
2022-12-20T10:50:19.307Z,100309.56
2022-12-20T10:53:20.460Z,100295.50
2022-12-20T10:55:50.852Z,100292.78
2022-12-20T10:58:30.929Z,100289.63
2022-12-20T11:01:13.561Z,100284.38
2022-12-20T11:04:01.274Z,100286.69
2022-12-20T11:06:43.528Z,100279.78
2022-12-20T11:09:32.467Z,100271.38
2022-12-20T11:12:06.926Z,100265.50
2022-12-20T11:14:39.737Z,100269.91
2022-12-20T11:17:29.488Z,100263.44
2022-12-20T11:20:31.043Z,100250.66
2022-12-20T11:23:18.531Z,100245.84
2022-12-20T11:26:05.955Z,100245.63
2022-12-20T11:28:54.721Z,100248.34
2022-12-20T11:31:33.597Z,100249.41
2022-12-20T11:34:18.944Z,100230.56
2022-12-20T11:37:20.156Z,100230.56
2022-12-20T11:40:13.132Z,100222.81
2022-12-20T11:43:02.464Z,100230.16
2022-12-20T11:45:40.205Z,100235.19
2022-12-20T11:48:40.896Z,100224.72
2022-12-20T11:51:26.018Z,100214.03
2022-12-20T11:54:01.456Z,100206.91
2022-12-20T11:56:43.465Z,100200.63
2022-12-20T11:59:22.155Z,100180.53
2022-12-20T12:02:04.251Z,100192.06
2022-12-20T12:04:40.879Z,100188.31
2022-12-20T12:07:17.303Z,100191.22
2022-12-20T12:09:57.707Z,100190.38
2022-12-20T12:12:30.141Z,100174.88
2022-12-20T12:15:04.660Z,100176.75
2022-12-20T12:17:43.843Z,100166.31
2022-12-20T12:20:26.932Z,100154.38
2022-12-20T12:23:04.483Z,100157.53
2022-12-20T12:25:33.498Z,100157.31
2022-12-20T12:28:03.642Z,100155.44
2022-12-20T12:30:42.175Z,100158.16
2022-12-20T12:33:24.404Z,100159.41
2022-12-20T12:36:23.690Z,100160.47
2022-12-20T12:39:27.641Z,100162.13
2022-12-20T12:42:42.730Z,100156.88
2022-12-20T12:45:20.889Z,100157.31
2022-12-20T12:47:54.773Z,100161.91
2022-12-20T12:50:29.474Z,100158.97
2022-12-20T12:53:04.673Z,100173.19
2022-12-20T12:55:45.920Z,100174.03
2022-12-20T12:58:36.198Z,100170.69
2022-12-20T13:01:10.873Z,100156.06
2022-12-20T13:04:08.621Z,100154.16
2022-12-20T13:07:21.383Z,100154.16
2022-12-20T13:09:49.958Z,100153.97
2022-12-20T13:13:00.007Z,100155.00
2022-12-20T13:16:05.554Z,100155.22
2022-12-20T13:18:34.101Z,100170.69
2022-12-20T13:21:48.621Z,100169.66
2022-12-20T13:24:57.202Z,100168.34
2022-12-20T13:27:39.069Z,100169.22
2022-12-20T13:30:29.802Z,100171.94
2022-12-20T13:33:39.187Z,100174.03
2022-12-20T13:36:37.340Z,100172.78
2022-12-20T13:39:35.275Z,100159.19
2022-12-20T13:42:28.985Z,100167.97
2022-12-20T13:44:58.085Z,100157.53
2022-12-20T13:47:41.908Z,100156.28
2022-12-20T13:50:38.740Z,100151.47
2022-12-20T13:53:08.168Z,100143.94
2022-12-20T13:55:42.615Z,100146.44
2022-12-20T13:58:19.948Z,100131.78
2022-12-20T14:00:49.530Z,100129.69
2022-12-20T14:03:29.500Z,100134.91
2022-12-20T14:06:02.382Z,100138.25
2022-12-20T14:08:35.053Z,100146.44
2022-12-20T14:11:12.741Z,100125.72
2022-12-20T14:13:43.575Z,100123.81
2022-12-20T14:16:17.963Z,100117.75
2022-12-20T14:18:50.811Z,100123.19
2022-12-20T14:21:20.041Z,100131.34
2022-12-20T14:23:51.816Z,100125.09
2022-12-20T14:26:25.142Z,100128.00
2022-12-20T14:28:57.416Z,100137.22
2022-12-20T14:31:29.136Z,100147.06
2022-12-20T14:34:06.801Z,100130.72
2022-12-20T14:36:36.198Z,100126.34
2022-12-20T14:39:28.736Z,100115.88
2022-12-20T14:41:59.821Z,100112.53
2022-12-20T14:44:32.339Z,100119.00
2022-12-20T14:47:02.771Z,100128.00
2022-12-20T14:49:34.087Z,100123.63
2022-12-20T14:52:17.892Z,100124.66
2022-12-20T14:55:09.511Z,100124.66
2022-12-20T14:57:48.738Z,100110.44
2022-12-20T15:00:25.501Z,100117.13
2022-12-20T15:03:02.782Z,100113.78
2022-12-20T15:05:48.687Z,100110.22
2022-12-20T15:08:21.961Z,100113.16
2022-12-20T15:11:01.151Z,100111.69
2022-12-20T15:13:33.800Z,100107.09
2022-12-20T15:16:06.847Z,100102.88
2022-12-20T15:18:35.380Z,100112.94
2022-12-20T15:21:07.952Z,100109.38
2022-12-20T15:23:36.967Z,100112.94
2022-12-20T15:26:05.603Z,100117.53
2022-12-20T15:28:34.564Z,100132.81
2022-12-20T15:31:05.825Z,100131.75
2022-12-20T15:33:36.459Z,100129.25
2022-12-20T15:36:05.033Z,100137.63
2022-12-20T15:39:10.839Z,100132.38
2022-12-20T15:41:25.783Z,100128.81
2022-12-20T15:43:58.496Z,100125.69
2022-12-20T15:46:28.782Z,100107.25
2022-12-20T15:48:57.285Z,100104.34
2022-12-20T15:51:31.573Z,100100.56
2022-12-20T15:54:01.990Z,100092.41
2022-12-20T15:56:31.007Z,100107.09
2022-12-20T15:58:59.473Z,100084.66
2022-12-20T16:01:40.870Z,100099.94
2022-12-20T16:04:15.693Z,100096.81
2022-12-20T16:06:44.949Z,100093.25
2022-12-20T16:09:13.675Z,100087.81
2022-12-20T16:11:43.640Z,100071.50
2022-12-20T16:14:17.257Z,100060.84
2022-12-20T16:16:48.841Z,100072.53
2022-12-20T16:19:17.685Z,100061.03
2022-12-20T16:21:49.817Z,100068.16
2022-12-20T16:24:20.530Z,100073.38
2022-12-20T16:26:50.404Z,100057.88
2022-12-20T16:29:18.840Z,100055.16
2022-12-20T16:31:48.783Z,100045.97
2022-12-20T16:34:20.627Z,100049.50
2022-12-20T16:36:49.303Z,100051.19
2022-12-20T16:39:17.741Z,100056.84
2022-12-20T16:41:46.279Z,100049.50
2022-12-20T16:44:17.441Z,100060.00
2022-12-20T16:46:47.267Z,100068.16
2022-12-20T16:49:20.425Z,100063.75
2022-12-20T16:51:50.915Z,100071.09
2022-12-20T16:54:22.325Z,100076.72
2022-12-20T16:56:55.539Z,100077.56
2022-12-20T16:59:24.395Z,100071.09
2022-12-20T17:01:57.714Z,100082.78
2022-12-20T17:04:27.381Z,100079.88
2022-12-20T17:06:55.823Z,100080.06
2022-12-20T17:09:24.250Z,100074.63
2022-12-20T17:11:52.752Z,100083.41
2022-12-20T17:14:21.191Z,100068.16
2022-12-20T17:16:49.772Z,100063.56
2022-12-20T17:19:19.622Z,100069.19
2022-12-20T17:24:35.426Z,100046.59
2022-12-20T17:27:04.465Z,100038.63
2022-12-20T17:29:32.933Z,100044.06
2022-12-20T17:32:03.061Z,100041.97
2022-12-20T17:34:32.878Z,100044.69
2022-12-20T17:37:01.306Z,100038.22
2022-12-20T17:39:29.743Z,100040.72
2022-12-20T17:41:58.149Z,100042.41
2022-12-20T17:44:29.260Z,100043.25
2022-12-20T17:46:58.742Z,100049.94
2022-12-20T17:49:27.273Z,100047.22
2022-12-20T17:51:57.171Z,100039.91
2022-12-20T17:54:32.088Z,100041.78
2022-12-20T17:57:05.265Z,100047.22
2022-12-20T17:59:33.743Z,100054.53
2022-12-20T18:02:02.352Z,100052.66
2022-12-20T18:04:31.106Z,100061.66
2022-12-20T18:07:02.274Z,100063.31
2022-12-20T18:09:30.745Z,100066.03
2022-12-20T18:11:59.343Z,100051.59
2022-12-20T18:14:28.019Z,100038.22
2022-12-20T18:16:56.689Z,100040.72
2022-12-20T18:19:25.399Z,100022.72
2022-12-20T18:21:53.899Z,100034.66
2022-12-20T18:24:23.742Z,100044.50
2022-12-20T18:26:52.183Z,100039.06
2022-12-20T18:29:21.104Z,100031.94
2022-12-20T18:31:50.311Z,100021.03
2022-12-20T18:34:19.090Z,100012.25
2022-12-20T18:36:48.043Z,100026.09
2022-12-20T18:39:17.766Z,100028.81
2022-12-20T18:41:52.214Z,100018.97
2022-12-20T18:44:21.254Z,100009.94
2022-12-20T18:46:50.417Z,100002.63
2022-12-20T18:49:19.148Z,99995.31
2022-12-20T18:51:47.850Z,99979.00
2022-12-20T18:54:16.877Z,99985.47
2022-12-20T18:56:47.826Z,99986.53
2022-12-20T18:59:16.297Z,100003.69
2022-12-20T19:01:45.051Z,99997.41
2022-12-20T19:04:17.969Z,99980.25
2022-12-20T19:06:50.097Z,99978.16
2022-12-20T19:09:19.061Z,99970.84
2022-12-20T19:11:56.196Z,99976.28
2022-12-20T19:14:25.508Z,99979.84
2022-12-20T19:16:54.121Z,99980.47
2022-12-20T19:19:22.967Z,99989.47
2022-12-20T19:21:54.858Z,99974.59
2022-12-20T19:24:24.088Z,99968.31
2022-12-20T19:26:54.230Z,99968.31
2022-12-20T19:29:24.186Z,99972.91
2022-12-20T19:31:53.731Z,99960.38
2022-12-20T19:34:22.460Z,99966.84
2022-12-20T19:36:52.155Z,99960.56
2022-12-20T19:39:23.610Z,99937.97
2022-12-20T19:42:22.470Z,99926.25
2022-12-20T19:44:42.862Z,99939.22
2022-12-20T19:47:13.448Z,99929.19
2022-12-20T19:49:42.331Z,99935.47
2022-12-20T19:52:11.726Z,99942.59
2022-12-20T19:54:42.984Z,99941.75
2022-12-20T19:57:13.130Z,99938.41
2022-12-20T19:59:41.561Z,99924.81
2022-12-20T20:02:13.804Z,99932.13
2022-12-20T20:04:45.571Z,99934.00
2022-12-20T20:07:14.404Z,99939.44
2022-12-20T20:09:46.066Z,99959.31
2022-12-20T20:12:16.167Z,99937.78
2022-12-20T20:14:45.883Z,99934.22
2022-12-20T20:17:14.595Z,99930.66
2022-12-20T20:19:44.101Z,99920.00
2022-12-20T20:22:20.865Z,99917.28
2022-12-20T20:24:54.064Z,99916.44
2022-12-20T20:27:24.220Z,99930.88
2022-12-20T20:29:52.801Z,99909.75
2022-12-20T20:32:22.841Z,99904.06
2022-12-20T20:34:51.677Z,99903.22
2022-12-20T20:37:20.754Z,99905.13
2022-12-20T20:39:49.860Z,99919.38
2022-12-20T20:42:23.191Z,99914.53
2022-12-20T20:44:54.426Z,99897.59
2022-12-20T20:47:23.325Z,99907.41
2022-12-20T20:49:52.829Z,99915.38
2022-12-20T20:52:22.139Z,99921.84
2022-12-20T20:54:50.993Z,99903.84
2022-12-20T20:57:19.743Z,99912.84
2022-12-20T20:59:48.302Z,99913.69
2022-12-20T21:02:20.937Z,99911.81
2022-12-20T21:05:07.429Z,99909.72
2022-12-20T21:07:38.404Z,99902.59
2022-12-20T21:10:09.167Z,99897.16
2022-12-20T21:12:37.709Z,99893.41
2022-12-20T21:15:24.623Z,99896.13
2022-12-20T21:17:54.784Z,99886.25
2022-12-20T21:20:26.290Z,99885.44
2022-12-20T21:22:55.178Z,99876.44
2022-12-20T21:25:23.704Z,99884.00
2022-12-20T21:27:52.095Z,99881.06
2022-12-20T21:30:21.124Z,99884.81
2022-12-20T21:32:49.555Z,99885.44
2022-12-20T21:35:19.411Z,99886.25
2022-12-20T21:37:47.805Z,99894.22
2022-12-20T21:40:16.524Z,99883.34
2022-12-20T21:42:45.561Z,99875.19
2022-12-20T21:45:14.139Z,99881.66
2022-12-20T21:47:42.555Z,99867.03
2022-12-20T21:50:14.250Z,99855.06
2022-12-20T21:52:44.015Z,99857.78
2022-12-20T21:55:12.489Z,99851.56
2022-12-20T21:57:41.180Z,99838.75
2022-12-20T22:00:12.134Z,99854.88
2022-12-20T22:02:40.635Z,99856.53
2022-12-20T22:05:10.597Z,99859.47
2022-12-20T22:07:39.035Z,99867.41
2022-12-20T22:10:10.774Z,99859.06
2022-12-20T22:12:39.176Z,99861.78
2022-12-20T22:15:09.652Z,99868.25
2022-12-20T22:17:38.059Z,99852.56
2022-12-20T22:20:08.874Z,99852.56
2022-12-20T22:22:37.287Z,99836.22
2022-12-20T22:25:06.547Z,99836.00
2022-12-20T22:27:36.407Z,99835.38
2022-12-20T22:30:05.891Z,99824.72
2022-12-20T22:32:34.318Z,99829.13
2022-12-20T22:35:02.724Z,99818.03
2022-12-20T22:37:31.155Z,99813.63
2022-12-20T22:39:59.547Z,99815.53
2022-12-20T22:42:28.727Z,99818.03
2022-12-20T22:44:58.519Z,99819.06
2022-12-20T22:50:13.232Z,99805.69
2022-12-20T22:52:41.537Z,99807.56
2022-12-20T22:55:11.306Z,99800.47
2022-12-20T22:57:39.618Z,99797.75
2022-12-20T23:00:13.285Z,99801.28
2022-12-20T23:02:42.060Z,99797.53
2022-12-20T23:05:11.220Z,99801.09
2022-12-20T23:07:39.621Z,99791.03
2022-12-20T23:10:29.586Z,99781.81
2022-12-20T23:13:15.609Z,99775.53
2022-12-20T23:15:47.732Z,99775.97
2022-12-20T23:18:16.112Z,99779.13
2022-12-20T23:21:07.485Z,99771.38
2022-12-20T23:23:35.827Z,99762.84
2022-12-20T23:26:11.386Z,99762.22
2022-12-20T23:28:39.772Z,99759.69
2022-12-20T23:31:10.681Z,99756.78
2022-12-20T23:33:39.355Z,99754.69
2022-12-20T23:36:09.016Z,99760.72
2022-12-20T23:38:39.109Z,99759.47
2022-12-20T23:41:12.234Z,99744.19
2022-12-20T23:43:40.747Z,99743.75
2022-12-20T23:46:13.805Z,99737.28
2022-12-20T23:48:42.869Z,99731.00
2022-12-20T23:51:11.927Z,99718.22
2022-12-20T23:53:40.683Z,99715.72
2022-12-20T23:56:12.925Z,99711.34
2022-12-20T23:58:41.842Z,99708.63
